createdAt,value
2022-10-20T00:01:12.233Z,62.92
2022-10-20T00:03:39.839Z,62.83
2022-10-20T00:06:14.478Z,63.13
2022-10-20T00:08:42.987Z,63.30
2022-10-20T00:11:11.237Z,63.50
2022-10-20T00:13:39.264Z,63.38
2022-10-20T00:16:06.873Z,63.19
2022-10-20T00:18:34.619Z,63.23
2022-10-20T00:21:05.858Z,63.27
2022-10-20T00:23:32.619Z,63.12
2022-10-20T00:26:05.585Z,63.19
2022-10-20T00:28:32.802Z,63.41
2022-10-20T00:30:59.680Z,63.19
2022-10-20T00:33:27.607Z,63.40
2022-10-20T00:35:54.443Z,63.19
2022-10-20T00:38:21.591Z,63.55
2022-10-20T00:40:48.427Z,63.44
2022-10-20T00:43:17.160Z,63.45
2022-10-20T00:45:50.322Z,63.71
2022-10-20T00:48:22.990Z,63.54
2022-10-20T00:50:52.979Z,63.62
2022-10-20T00:53:24.657Z,63.61
2022-10-20T00:55:54.860Z,63.52
2022-10-20T00:58:22.042Z,63.83
2022-10-20T01:00:53.634Z,63.79
2022-10-20T01:03:26.611Z,63.88
2022-10-20T01:05:53.487Z,63.64
2022-10-20T01:08:20.285Z,63.76
2022-10-20T01:11:01.142Z,63.70
2022-10-20T01:13:37.665Z,63.65
2022-10-20T01:16:19.500Z,63.89
2022-10-20T01:18:56.244Z,64.02
2022-10-20T01:21:48.034Z,63.99
2022-10-20T01:24:44.560Z,64.06
2022-10-20T01:27:38.727Z,63.83
2022-10-20T01:30:18.796Z,63.88
2022-10-20T01:32:51.637Z,64.10
2022-10-20T01:35:32.429Z,64.12
2022-10-20T01:38:10.513Z,64.15
2022-10-20T01:40:59.192Z,64.27
2022-10-20T01:43:28.848Z,64.36
2022-10-20T01:45:59.043Z,64.48
2022-10-20T01:48:31.752Z,64.12
2022-10-20T01:51:00.610Z,64.44
2022-10-20T01:53:27.937Z,64.16
2022-10-20T01:55:57.702Z,64.56
2022-10-20T01:58:45.624Z,64.67
2022-10-20T02:01:30.999Z,64.17
2022-10-20T02:04:01.616Z,64.21
2022-10-20T02:07:00.949Z,64.47
2022-10-20T02:09:35.283Z,64.72
2022-10-20T02:12:07.671Z,64.53
2022-10-20T02:14:35.882Z,64.43
2022-10-20T02:17:13.538Z,64.73
2022-10-20T02:19:42.885Z,64.50
2022-10-20T02:22:14.176Z,64.75
2022-10-20T02:24:43.129Z,64.99
2022-10-20T02:27:33.049Z,64.96
2022-10-20T02:30:08.092Z,64.80
2022-10-20T02:32:37.596Z,64.96
2022-10-20T02:35:07.363Z,64.87
2022-10-20T02:37:34.663Z,64.87
2022-10-20T02:40:02.485Z,64.94
2022-10-20T02:42:29.250Z,65.05
2022-10-20T02:44:56.179Z,64.80
2022-10-20T02:47:23.175Z,65.04
2022-10-20T02:49:50.080Z,65.17
2022-10-20T02:52:16.983Z,64.90
2022-10-20T02:54:43.790Z,64.86
2022-10-20T02:57:10.633Z,65.04
2022-10-20T02:59:37.802Z,65.21
2022-10-20T03:02:04.696Z,65.19
2022-10-20T03:04:31.682Z,65.06
2022-10-20T03:06:58.494Z,65.17
2022-10-20T03:09:25.411Z,65.15
2022-10-20T03:11:52.225Z,65.31
2022-10-20T03:14:19.083Z,65.21
2022-10-20T03:16:45.883Z,65.32
2022-10-20T03:19:12.685Z,65.21
2022-10-20T03:21:39.502Z,65.39
2022-10-20T03:24:06.622Z,65.14
2022-10-20T03:26:33.542Z,65.04
2022-10-20T03:29:00.372Z,65.23
2022-10-20T03:31:27.205Z,65.21
2022-10-20T03:33:54.070Z,65.29
2022-10-20T03:36:21.127Z,65.29
2022-10-20T03:38:47.975Z,65.20
2022-10-20T03:41:14.828Z,65.30
2022-10-20T03:43:42.174Z,65.39
2022-10-20T03:46:12.174Z,65.26
2022-10-20T03:48:39.941Z,65.15
2022-10-20T03:51:07.857Z,65.19
2022-10-20T03:53:34.720Z,65.36
2022-10-20T03:56:09.755Z,65.39
2022-10-20T03:58:36.872Z,65.32
2022-10-20T04:01:06.587Z,65.52
2022-10-20T04:03:33.532Z,65.59
2022-10-20T04:06:00.506Z,65.56
2022-10-20T04:08:27.344Z,65.54
2022-10-20T04:10:54.186Z,65.45
2022-10-20T04:13:21.029Z,65.40
2022-10-20T04:15:47.813Z,65.58
2022-10-20T04:18:14.655Z,65.27
2022-10-20T04:20:44.334Z,65.39
2022-10-20T04:23:11.965Z,65.04
2022-10-20T04:25:48.369Z,65.32
2022-10-20T04:28:17.592Z,65.15
2022-10-20T04:30:44.765Z,65.07
2022-10-20T04:33:12.704Z,65.31
2022-10-20T04:35:40.245Z,65.14
2022-10-20T04:38:07.373Z,65.35
2022-10-20T04:40:34.249Z,65.06
2022-10-20T04:43:01.271Z,65.17
2022-10-20T04:45:28.461Z,64.78
2022-10-20T04:47:55.325Z,65.01
2022-10-20T04:50:22.261Z,65.08
2022-10-20T04:52:49.113Z,65.33
2022-10-20T04:55:15.962Z,65.13
2022-10-20T04:57:42.797Z,65.13
2022-10-20T05:00:10.032Z,65.62
2022-10-20T05:02:36.867Z,65.43
2022-10-20T05:05:05.236Z,65.27
2022-10-20T05:07:32.243Z,65.23
2022-10-20T05:09:59.158Z,65.35
2022-10-20T05:12:26.021Z,65.20
2022-10-20T05:14:52.847Z,65.32
2022-10-20T05:17:19.737Z,65.40
2022-10-20T05:19:46.702Z,65.55
2022-10-20T05:22:13.540Z,65.85
2022-10-20T05:24:40.339Z,65.56
2022-10-20T05:27:07.223Z,66.09
2022-10-20T05:29:34.056Z,65.88
2022-10-20T05:32:00.879Z,65.80
2022-10-20T05:34:27.740Z,66.16
2022-10-20T05:36:54.739Z,66.10
2022-10-20T05:39:21.860Z,66.29
2022-10-20T05:41:48.663Z,66.10
2022-10-20T05:44:15.548Z,66.26
2022-10-20T05:46:42.831Z,66.27
2022-10-20T05:49:15.889Z,66.31
2022-10-20T05:51:44.034Z,66.49
2022-10-20T05:54:12.235Z,66.38
2022-10-20T05:56:39.339Z,66.21
2022-10-20T05:59:06.160Z,66.43
2022-10-20T06:02:00.089Z,65.96
2022-10-20T06:04:28.392Z,66.24
2022-10-20T06:06:56.266Z,66.20
2022-10-20T06:09:24.669Z,66.23
2022-10-20T06:11:52.570Z,66.30
2022-10-20T06:14:22.625Z,66.21
2022-10-20T06:16:53.858Z,66.13
2022-10-20T06:19:20.744Z,66.10
2022-10-20T06:21:49.286Z,65.95
2022-10-20T06:24:17.403Z,66.22
2022-10-20T06:26:45.272Z,66.26
2022-10-20T06:29:15.465Z,66.48
2022-10-20T06:31:48.259Z,66.56
2022-10-20T06:34:18.119Z,66.96
2022-10-20T06:36:46.353Z,66.66
2022-10-20T06:39:19.319Z,67.06
2022-10-20T06:41:51.156Z,67.03
2022-10-20T06:44:19.660Z,67.03
2022-10-20T06:46:46.916Z,66.82
2022-10-20T06:49:14.861Z,66.99
2022-10-20T06:51:41.996Z,66.93
2022-10-20T06:54:09.602Z,66.87
2022-10-20T06:56:37.261Z,66.78
2022-10-20T06:59:04.531Z,67.01
2022-10-20T07:01:37.090Z,67.03
2022-10-20T07:04:11.729Z,66.90
2022-10-20T07:06:41.124Z,66.61
2022-10-20T07:09:12.268Z,66.97
2022-10-20T07:11:39.051Z,66.88
2022-10-20T07:14:06.218Z,66.85
2022-10-20T07:16:35.207Z,66.71
2022-10-20T07:19:04.054Z,67.15
2022-10-20T07:21:35.738Z,66.98
2022-10-20T07:24:06.993Z,67.26
2022-10-20T07:26:37.356Z,67.26
2022-10-20T07:29:05.012Z,67.55
2022-10-20T07:31:38.298Z,67.21
2022-10-20T07:34:13.686Z,67.50
2022-10-20T07:36:47.272Z,67.24
2022-10-20T07:39:14.322Z,67.39
2022-10-20T07:41:44.290Z,67.33
2022-10-20T07:44:12.592Z,67.06
2022-10-20T07:46:39.502Z,67.25
2022-10-20T07:50:00.716Z,66.97
2022-10-20T07:51:53.548Z,67.01
2022-10-20T07:54:20.615Z,67.09
2022-10-20T07:56:47.826Z,67.10
2022-10-20T07:59:15.174Z,66.91
2022-10-20T08:01:42.512Z,66.85
2022-10-20T08:04:10.009Z,67.02
2022-10-20T08:06:39.067Z,66.90
2022-10-20T08:09:07.734Z,66.69
2022-10-20T08:11:35.894Z,66.41
2022-10-20T08:14:03.019Z,66.52
2022-10-20T08:16:31.866Z,66.53
2022-10-20T08:19:03.307Z,66.44
2022-10-20T08:21:30.362Z,66.49
2022-10-20T08:23:57.683Z,66.52
2022-10-20T08:26:26.429Z,66.26
2022-10-20T08:28:56.112Z,66.12
2022-10-20T08:31:24.221Z,66.47
2022-10-20T08:33:52.937Z,66.43
2022-10-20T08:36:21.325Z,66.26
2022-10-20T08:38:48.857Z,66.20
2022-10-20T08:41:25.712Z,66.09
2022-10-20T08:43:55.467Z,66.40
2022-10-20T08:46:33.282Z,65.94
2022-10-20T08:49:01.575Z,66.16
2022-10-20T08:51:33.070Z,66.22
2022-10-20T08:54:02.954Z,65.91
2022-10-20T08:56:33.695Z,65.83
2022-10-20T08:59:03.951Z,66.01
2022-10-20T09:01:36.363Z,65.97
2022-10-20T09:04:14.683Z,65.99
2022-10-20T09:06:45.854Z,65.69
2022-10-20T09:09:19.236Z,65.87
2022-10-20T09:11:47.855Z,65.64
2022-10-20T09:14:17.245Z,65.70
2022-10-20T09:16:59.648Z,65.69
2022-10-20T09:19:28.570Z,65.84
2022-10-20T09:22:03.220Z,66.22
2022-10-20T09:24:31.940Z,66.08
2022-10-20T09:27:21.767Z,66.35
2022-10-20T09:29:49.229Z,66.57
2022-10-20T09:32:50.375Z,66.83
2022-10-20T09:35:27.154Z,66.79
2022-10-20T09:38:26.919Z,66.89
2022-10-20T09:41:10.671Z,66.99
2022-10-20T09:44:00.632Z,67.10
2022-10-20T09:46:30.776Z,66.87
2022-10-20T09:48:58.558Z,66.86
2022-10-20T09:51:28.310Z,67.14
2022-10-20T09:54:06.038Z,67.01
2022-10-20T09:56:37.803Z,66.99
2022-10-20T09:59:09.788Z,67.15
2022-10-20T10:01:53.810Z,67.09
2022-10-20T10:04:38.752Z,67.23
2022-10-20T10:07:27.037Z,67.22
2022-10-20T10:10:08.478Z,67.28
2022-10-20T10:12:36.497Z,67.13
2022-10-20T10:15:34.757Z,67.28
2022-10-20T10:18:14.025Z,67.19
2022-10-20T10:20:41.884Z,67.29
2022-10-20T10:23:26.920Z,67.48
2022-10-20T10:25:57.966Z,67.19
2022-10-20T10:28:37.467Z,67.03
2022-10-20T10:31:17.840Z,67.14
2022-10-20T10:33:44.959Z,67.34
2022-10-20T10:36:35.175Z,67.42
2022-10-20T10:39:04.426Z,67.11
2022-10-20T10:41:53.049Z,67.34
2022-10-20T10:44:31.926Z,67.35
2022-10-20T10:47:31.364Z,67.16
2022-10-20T10:50:17.303Z,67.26
2022-10-20T10:52:59.597Z,67.15
2022-10-20T10:55:47.882Z,66.94
2022-10-20T10:58:31.009Z,67.30
2022-10-20T11:01:11.140Z,67.14
2022-10-20T11:04:29.479Z,67.18
2022-10-20T11:07:04.993Z,67.19
2022-10-20T11:09:50.067Z,67.32
2022-10-20T11:12:41.798Z,67.30
2022-10-20T11:15:47.843Z,67.20
2022-10-20T11:18:32.644Z,67.46
2022-10-20T11:21:37.033Z,67.50
2022-10-20T11:24:13.100Z,67.11
2022-10-20T11:27:02.219Z,67.25
2022-10-20T11:29:37.165Z,67.36
2022-10-20T11:32:30.443Z,67.54
2022-10-20T11:35:02.304Z,67.36
2022-10-20T11:37:32.696Z,67.34
2022-10-20T11:40:11.719Z,67.47
2022-10-20T11:42:51.112Z,67.61
2022-10-20T11:45:37.823Z,67.41
2022-10-20T11:48:17.716Z,67.32
2022-10-20T11:50:54.241Z,67.48
2022-10-20T11:53:23.895Z,67.65
2022-10-20T11:55:53.888Z,67.59
2022-10-20T11:58:45.113Z,67.66
2022-10-20T12:01:38.496Z,67.72
2022-10-20T12:04:31.314Z,67.78
2022-10-20T12:07:36.081Z,67.45
2022-10-20T12:10:13.536Z,67.53
2022-10-20T12:12:54.222Z,67.81
2022-10-20T12:15:25.311Z,67.84
2022-10-20T12:17:54.370Z,67.78
2022-10-20T12:20:21.326Z,67.81
2022-10-20T12:22:51.320Z,67.73
2022-10-20T12:25:27.558Z,67.63
2022-10-20T12:28:25.750Z,68.41
2022-10-20T12:30:59.831Z,68.92
2022-10-20T12:33:40.086Z,68.95
2022-10-20T12:36:15.803Z,68.94
2022-10-20T12:38:45.058Z,69.07
2022-10-20T12:41:26.802Z,69.10
2022-10-20T12:43:58.999Z,69.17
2022-10-20T12:46:31.926Z,68.96
2022-10-20T12:49:09.459Z,68.98
2022-10-20T12:51:49.108Z,69.33
2022-10-20T12:54:48.573Z,69.09
2022-10-20T12:57:41.745Z,69.11
2022-10-20T13:00:29.019Z,69.11
2022-10-20T13:02:58.185Z,69.19
2022-10-20T13:05:39.190Z,69.21
2022-10-20T13:08:21.555Z,69.13
2022-10-20T13:10:50.029Z,69.52
2022-10-20T13:13:20.036Z,69.26
2022-10-20T13:15:50.739Z,69.28
2022-10-20T13:18:35.718Z,69.08
2022-10-20T13:21:02.896Z,69.21
2022-10-20T13:23:54.276Z,68.97
2022-10-20T13:26:21.114Z,68.74
2022-10-20T13:28:50.330Z,68.58
2022-10-20T13:31:33.847Z,68.63
2022-10-20T13:34:05.979Z,68.35
2022-10-20T13:36:52.210Z,68.73
2022-10-20T13:39:31.077Z,68.78
2022-10-20T13:42:05.039Z,68.65
2022-10-20T13:44:52.974Z,68.48
2022-10-20T13:47:38.498Z,68.32
2022-10-20T13:50:14.304Z,68.33
2022-10-20T13:52:45.310Z,68.33
2022-10-20T13:55:27.781Z,67.94
2022-10-20T13:58:08.045Z,67.95
2022-10-20T14:00:36.562Z,67.91
2022-10-20T14:03:15.655Z,67.56
2022-10-20T14:05:42.831Z,67.69
2022-10-20T14:08:11.790Z,67.85
2022-10-20T14:10:50.674Z,68.04
2022-10-20T14:13:21.471Z,68.31
2022-10-20T14:15:52.520Z,68.16
2022-10-20T14:18:40.002Z,68.34
2022-10-20T14:21:29.377Z,68.36
2022-10-20T14:24:04.014Z,67.99
2022-10-20T14:26:31.831Z,68.21
2022-10-20T14:28:59.531Z,67.83
2022-10-20T14:31:28.171Z,67.54
2022-10-20T14:33:55.161Z,67.29
2022-10-20T14:36:30.502Z,67.24
2022-10-20T14:39:01.525Z,67.14
2022-10-20T14:41:30.064Z,66.83
2022-10-20T14:44:31.140Z,66.76
2022-10-20T14:47:07.705Z,66.45
2022-10-20T14:49:40.250Z,66.52
2022-10-20T14:52:53.804Z,66.06
2022-10-20T14:55:47.751Z,65.98
2022-10-20T14:58:29.466Z,65.78
2022-10-20T15:01:23.160Z,65.86
2022-10-20T15:04:16.859Z,65.46
2022-10-20T15:06:45.221Z,65.49
2022-10-20T15:09:24.358Z,65.33
2022-10-20T15:11:51.628Z,65.26
2022-10-20T15:14:18.968Z,65.15
2022-10-20T15:16:48.556Z,65.04
2022-10-20T15:19:18.377Z,65.05
2022-10-20T15:21:45.646Z,64.93
2022-10-20T15:24:12.660Z,64.90
2022-10-20T15:26:40.073Z,64.61
2022-10-20T15:29:08.314Z,64.76
2022-10-20T15:34:22.748Z,64.64
2022-10-20T15:36:51.141Z,64.67
2022-10-20T15:39:18.711Z,64.50
2022-10-20T15:41:47.110Z,64.46
2022-10-20T15:44:19.731Z,64.44
2022-10-20T15:46:47.948Z,64.29
2022-10-20T15:49:15.884Z,64.16
2022-10-20T15:51:45.887Z,64.21
2022-10-20T15:54:19.115Z,64.01
2022-10-20T15:56:46.326Z,64.04
2022-10-20T15:59:13.502Z,64.08
2022-10-20T16:01:40.580Z,64.08
2022-10-20T16:04:24.003Z,63.89
2022-10-20T16:06:57.741Z,63.99
2022-10-20T16:09:26.387Z,63.92
2022-10-20T16:11:53.439Z,63.90
2022-10-20T16:14:20.283Z,63.96
2022-10-20T16:16:47.508Z,64.09
2022-10-20T16:19:14.653Z,63.93
2022-10-20T16:21:41.902Z,64.30
2022-10-20T16:24:09.303Z,64.42
2022-10-20T16:26:36.333Z,64.48
2022-10-20T16:29:03.401Z,64.21
2022-10-20T16:31:30.435Z,64.40
2022-10-20T16:34:00.586Z,64.46
2022-10-20T16:36:28.305Z,64.39
2022-10-20T16:38:57.161Z,64.29
2022-10-20T16:41:24.667Z,63.91
2022-10-20T16:43:52.220Z,64.21
2022-10-20T16:46:19.332Z,64.26
2022-10-20T16:48:48.355Z,64.36
2022-10-20T16:51:16.616Z,64.32
2022-10-20T16:53:44.349Z,64.42
2022-10-20T16:56:15.324Z,64.33
2022-10-20T16:58:45.339Z,64.47
2022-10-20T17:01:14.192Z,64.43
2022-10-20T17:06:11.640Z,64.36
2022-10-20T17:08:40.388Z,64.21
2022-10-20T17:11:28.934Z,63.85
2022-10-20T17:13:56.921Z,63.87
2022-10-20T17:16:28.608Z,63.75
2022-10-20T17:18:58.189Z,63.50
2022-10-20T17:21:26.039Z,63.35
2022-10-20T17:23:53.212Z,63.49
2022-10-20T17:26:25.833Z,63.66
2022-10-20T17:28:57.260Z,63.71
2022-10-20T17:31:24.373Z,63.53
2022-10-20T17:33:52.195Z,63.56
2022-10-20T17:36:20.011Z,63.48
2022-10-20T17:38:47.111Z,63.34
2022-10-20T17:41:16.068Z,63.31
2022-10-20T17:43:43.362Z,63.21
2022-10-20T17:46:14.304Z,63.16
2022-10-20T17:48:41.713Z,63.21
2022-10-20T17:51:12.987Z,63.05
2022-10-20T17:53:43.785Z,63.02
2022-10-20T17:56:15.400Z,62.94
2022-10-20T17:58:43.647Z,62.74
2022-10-20T18:01:26.165Z,62.92
2022-10-20T18:04:11.249Z,62.83
2022-10-20T18:06:39.214Z,62.67
2022-10-20T18:09:13.247Z,62.74
2022-10-20T18:11:44.797Z,62.45
2022-10-20T18:14:11.753Z,62.49
2022-10-20T18:16:40.770Z,62.37
2022-10-20T18:19:09.501Z,62.49
2022-10-20T18:21:36.802Z,62.29
2022-10-20T18:24:06.685Z,62.57
2022-10-20T18:26:35.983Z,62.25
2022-10-20T18:29:06.108Z,62.51
2022-10-20T18:31:34.927Z,62.33
2022-10-20T18:34:06.693Z,62.50
2022-10-20T18:36:37.922Z,62.77
2022-10-20T18:39:08.484Z,62.48
2022-10-20T18:41:40.313Z,62.73
2022-10-20T18:44:11.841Z,62.83
2022-10-20T18:46:40.039Z,62.81
2022-10-20T18:49:08.650Z,63.19
2022-10-20T18:51:37.981Z,63.66
2022-10-20T18:54:07.218Z,63.71
2022-10-20T18:56:34.941Z,64.10
2022-10-20T18:59:10.016Z,63.99
2022-10-20T19:01:38.864Z,64.16
2022-10-20T19:04:07.483Z,64.17
2022-10-20T19:06:40.143Z,64.02
2022-10-20T19:09:14.657Z,63.84
2022-10-20T19:11:42.604Z,63.58
2022-10-20T19:14:12.449Z,63.36
2022-10-20T19:16:42.157Z,63.50
2022-10-20T19:19:10.150Z,63.51
2022-10-20T19:21:38.522Z,63.25
2022-10-20T19:24:09.996Z,62.98
2022-10-20T19:26:41.938Z,63.07
2022-10-20T19:29:13.487Z,62.97
2022-10-20T19:31:47.322Z,62.85
2022-10-20T19:34:18.410Z,62.67
2022-10-20T19:36:49.326Z,62.48
2022-10-20T19:39:25.512Z,62.38
2022-10-20T19:41:53.385Z,62.38
2022-10-20T19:44:20.851Z,62.20
2022-10-20T19:46:51.935Z,61.96
2022-10-20T19:49:19.647Z,61.79
2022-10-20T19:51:47.388Z,61.84
2022-10-20T19:54:15.336Z,61.74
2022-10-20T19:56:43.712Z,61.69
2022-10-20T19:59:11.469Z,61.62
2022-10-20T20:01:41.471Z,60.56
2022-10-20T20:04:09.377Z,60.27
2022-10-20T20:06:40.420Z,60.20
2022-10-20T20:09:09.073Z,60.60
2022-10-20T20:11:38.158Z,60.64
2022-10-20T20:14:15.570Z,61.11
2022-10-20T20:16:47.257Z,61.04
2022-10-20T20:19:17.310Z,61.28
2022-10-20T20:21:46.599Z,61.06
2022-10-20T20:24:14.475Z,60.79
2022-10-20T20:26:43.305Z,60.70
2022-10-20T20:29:10.785Z,60.74
2022-10-20T20:31:37.989Z,60.59
2022-10-20T20:34:05.375Z,60.62
2022-10-20T20:36:32.730Z,60.66
2022-10-20T20:39:02.263Z,60.76
2022-10-20T20:41:31.920Z,60.80
2022-10-20T20:44:01.995Z,60.96
2022-10-20T20:46:34.608Z,60.93
2022-10-20T20:49:04.059Z,60.92
2022-10-20T20:51:34.294Z,61.05
2022-10-20T20:54:02.632Z,61.11
2022-10-20T20:56:30.277Z,61.23
2022-10-20T20:58:57.640Z,61.06
2022-10-20T21:01:29.621Z,61.30
2022-10-20T21:04:02.692Z,61.43
2022-10-20T21:06:33.895Z,61.42
2022-10-20T21:09:12.344Z,61.50
2022-10-20T21:11:39.823Z,61.54
2022-10-20T21:14:07.110Z,61.77
2022-10-20T21:16:38.547Z,61.77
2022-10-20T21:19:10.088Z,61.82
2022-10-20T21:21:59.338Z,62.00
2022-10-20T21:24:36.794Z,61.88
2022-10-20T21:27:04.107Z,62.21
2022-10-20T21:29:31.165Z,62.09
2022-10-20T21:32:01.647Z,62.35
2022-10-20T21:34:28.777Z,62.32
2022-10-20T21:36:56.997Z,62.51
2022-10-20T21:39:24.274Z,62.62
2022-10-20T21:41:51.701Z,62.84
2022-10-20T21:44:19.482Z,62.97
2022-10-20T21:46:51.248Z,63.05
2022-10-20T21:49:20.685Z,63.03
2022-10-20T21:51:54.256Z,63.21
2022-10-20T21:54:24.000Z,63.33
2022-10-20T21:56:51.740Z,63.52
2022-10-20T21:59:27.213Z,63.59
2022-10-20T22:01:56.424Z,63.56
2022-10-20T22:04:26.288Z,63.50
2022-10-20T22:06:53.768Z,63.77
2022-10-20T22:09:21.498Z,63.81
2022-10-20T22:11:58.795Z,63.72
2022-10-20T22:14:26.407Z,63.76
2022-10-20T22:16:55.838Z,63.85
2022-10-20T22:19:24.163Z,63.86
2022-10-20T22:21:52.463Z,64.08
2022-10-20T22:24:20.958Z,63.94
2022-10-20T22:26:49.634Z,64.09
2022-10-20T22:29:17.400Z,64.24
2022-10-20T22:31:44.766Z,64.11
2022-10-20T22:34:12.070Z,64.15
2022-10-20T22:36:40.039Z,64.33
2022-10-20T22:39:09.000Z,64.21
2022-10-20T22:41:36.392Z,64.30
2022-10-20T22:44:03.303Z,64.27
2022-10-20T22:46:30.242Z,64.39
2022-10-20T22:51:44.111Z,64.35
2022-10-20T22:54:11.109Z,64.52
2022-10-20T22:56:38.055Z,64.49
2022-10-20T22:59:04.970Z,64.63
2022-10-20T23:01:32.017Z,64.83
2022-10-20T23:03:59.277Z,64.71
2022-10-20T23:06:26.857Z,64.68
2022-10-20T23:08:55.876Z,64.88
2022-10-20T23:11:23.403Z,64.71
2022-10-20T23:13:51.485Z,64.87
2022-10-20T23:16:18.787Z,64.92
2022-10-20T23:18:45.780Z,65.14
2022-10-20T23:21:14.342Z,65.04
2022-10-20T23:23:41.668Z,65.03
2022-10-20T23:26:09.146Z,65.24
2022-10-20T23:28:36.996Z,65.16
2022-10-20T23:31:11.672Z,65.18
2022-10-20T23:33:39.685Z,65.35
2022-10-20T23:36:07.018Z,65.16
2022-10-20T23:38:34.051Z,65.27
2022-10-20T23:41:00.896Z,65.49
2022-10-20T23:43:28.205Z,65.42
2022-10-20T23:45:55.100Z,65.55
2022-10-20T23:48:22.052Z,65.47
2022-10-20T23:50:48.916Z,65.63
2022-10-20T23:53:15.839Z,65.37
2022-10-20T23:55:43.503Z,65.56
2022-10-20T23:58:10.845Z,65.59
